Time;durP1;ratioP1;P1;durP2;ratioP2;P2;SDS_P1;SDS_P2;PMS_P1;PMS_P2;Temp;Humidity;BMP_temperature;BMP_pressure;BME280_temperature;BME280_humidity;BME280_pressure;Samples;Min_cycle;Max_cycle;Signal;HPM_P1;HPM_P2
2022/03/05 00:01:14;;;;;;;8.18;3.95;;;;;;;11.25;73.34;101135.34;2102112;28;20044;-77
2022/03/05 00:02:35;;;;;;;6.20;3.08;;;;;;;11.25;73.39;101132.72;2112814;28;20051;-77
2022/03/05 00:03:58;;;;;;;7.15;3.05;;;;;;;11.28;73.59;101133.69;2112817;28;20062;-77
2022/03/05 00:05:21;;;;;;;5.20;2.28;;;;;;;11.30;73.63;101131.94;2112809;28;20032;-78
2022/03/05 00:06:43;;;;;;;9.88;4.25;;;;;;;11.34;73.43;101130.25;2112936;28;20081;-77
2022/03/05 00:08:06;;;;;;;8.43;4.32;;;;;;;11.37;73.46;101131.19;2096127;28;20155;-78
2022/03/05 00:09:30;;;;;;;12.52;6.18;;;;;;;11.40;73.53;101125.97;2102097;28;20136;-80
2022/03/05 00:10:52;;;;;;;11.77;7.00;;;;;;;11.41;73.70;101126.88;2110584;28;20163;-78
2022/03/05 00:12:15;;;;;;;9.23;4.45;;;;;;;11.43;73.41;101128.66;2113007;28;20096;-77
2022/03/05 00:13:38;;;;;;;7.95;4.80;;;;;;;11.44;73.35;101122.50;2104347;28;20050;-77
2022/03/05 00:15:00;;;;;;;15.63;10.65;;;;;;;11.44;73.64;101116.31;2112722;28;20083;-78
2022/03/05 00:16:22;;;;;;;11.85;6.85;;;;;;;11.46;73.68;101117.25;2107104;28;20454;-77
2022/03/05 00:17:45;;;;;;;11.45;6.57;;;;;;;11.45;73.55;101108.44;2110198;28;20039;-78
2022/03/05 00:19:08;;;;;;;7.57;4.10;;;;;;;11.44;73.40;101114.56;2107146;28;20073;-77
2022/03/05 00:20:31;;;;;;;13.15;5.53;;;;;;;11.44;73.53;101105.75;2101906;28;20544;-77
2022/03/05 00:21:54;;;;;;;7.80;3.00;;;;;;;11.42;73.33;101104.84;2102114;28;20043;-76
2022/03/05 00:23:16;;;;;;;5.72;3.22;;;;;;;11.40;73.29;101107.47;2110298;28;20056;-77
2022/03/05 00:24:45;;;;;;;4.38;2.33;;;;;;;11.40;73.41;101111.84;2107080;28;20102;-77
2022/03/05 00:26:08;;;;;;;5.05;1.77;;;;;;;11.41;73.47;101111.00;2113325;28;20051;-77
2022/03/05 00:27:29;;;;;;;3.97;2.40;;;;;;;11.48;73.87;101119.06;2104253;28;20036;-77
2022/03/05 00:28:52;;;;;;;4.60;1.48;;;;;;;11.52;73.87;101114.72;2101507;28;20044;-76
2022/03/05 00:30:14;;;;;;;3.97;1.95;;;;;;;11.54;74.02;101115.63;2106795;28;20048;-76
2022/03/05 00:31:37;;;;;;;6.55;3.13;;;;;;;11.56;74.02;101113.88;2104181;28;20062;-76
2022/03/05 00:33:00;;;;;;;5.18;1.98;;;;;;;11.54;73.98;101111.25;2112699;28;20652;-76
2022/03/05 00:34:22;;;;;;;4.93;2.15;;;;;;;11.56;74.24;101108.59;2112731;28;20047;-76
2022/03/05 00:35:48;;;;;;;5.40;2.13;;;;;;;11.57;74.22;101110.38;2115274;28;20032;-77
2022/03/05 00:37:10;;;;;;;5.13;2.50;;;;;;;11.56;74.32;101113.88;2112966;28;20526;-76
2022/03/05 00:38:34;;;;;;;2.90;1.90;;;;;;;11.56;74.25;101113.88;2106786;28;20044;-77
2022/03/05 00:39:57;;;;;;;4.25;2.78;;;;;;;11.59;74.08;101108.66;2104129;28;20044;-77
2022/03/05 00:41:21;;;;;;;5.63;2.03;;;;;;;11.55;74.31;101101.56;2101932;28;20059;-77
2022/03/05 00:42:42;;;;;;;5.22;1.60;;;;;;;11.44;74.72;101103.09;2110003;28;20059;-76
2022/03/05 00:44:05;;;;;;;8.30;1.92;;;;;;;11.62;74.76;101105.19;2104216;28;20074;-78
2022/03/05 00:45:27;;;;;;;5.65;2.67;;;;;;;11.66;74.87;101104.38;2110264;28;20532;-76
2022/03/05 00:46:50;;;;;;;8.20;1.60;;;;;;;11.66;74.75;101105.25;2106831;28;20138;-77
2022/03/05 00:48:13;;;;;;;7.13;2.47;;;;;;;11.68;74.64;101097.38;2095918;28;20048;-77
2022/03/05 00:49:36;;;;;;;5.55;1.90;;;;;;;11.68;74.67;101095.63;2107611;28;20044;-77
2022/03/05 00:50:58;;;;;;;4.18;1.38;;;;;;;11.70;74.68;101095.63;2112561;28;20135;-77
2022/03/05 00:52:21;;;;;;;2.55;1.48;;;;;;;11.69;74.68;101099.13;2104061;28;20068;-77
2022/03/05 00:53:43;;;;;;;7.05;2.55;;;;;;;11.66;74.60;101096.44;2101672;28;20044;-76
2022/03/05 00:55:10;;;;;;;3.97;1.73;;;;;;;11.65;74.49;101087.63;2110095;28;20043;-78
2022/03/05 00:56:32;;;;;;;7.85;2.50;;;;;;;11.63;74.67;101093.72;2106756;28;20182;-78
2022/03/05 00:57:55;;;;;;;4.15;1.88;;;;;;;11.61;74.61;101095.47;2109880;28;20071;-77
2022/03/05 00:59:16;;;;;;;4.35;2.25;;;;;;;11.62;74.54;101094.63;2104105;28;20499;-76
2022/03/05 01:00:39;;;;;;;3.13;1.48;;;;;;;11.60;74.59;101099.88;2101181;28;20127;-77
2022/03/05 01:02:00;;;;;;;2.83;1.48;;;;;;;11.59;74.77;101101.63;2109887;28;20134;-76
2022/03/05 01:03:23;;;;;;;5.72;2.38;;;;;;;11.60;74.73;101094.59;2103876;28;20032;-76
2022/03/05 01:04:44;;;;;;;5.20;1.95;;;;;;;11.59;74.96;101098.97;2109751;28;20059;-76
2022/03/05 01:06:07;;;;;;;2.80;1.65;;;;;;;11.59;74.87;101093.69;2104028;28;20040;-76
2022/03/05 01:07:29;;;;;;;6.22;2.17;;;;;;;11.60;74.89;101089.31;2109626;28;20371;-76
2022/03/05 01:08:52;;;;;;;4.70;2.10;;;;;;;11.61;74.99;101095.47;2112438;28;20093;-76
2022/03/05 01:10:17;;;;;;;9.02;1.85;;;;;;;11.64;75.02;101085.84;2104009;28;20095;-77
2022/03/05 01:11:38;;;;;;;7.18;2.50;;;;;;;11.66;74.99;101084.09;2101845;28;20064;-76
2022/03/05 01:13:02;;;;;;;6.43;1.95;;;;;;;11.67;75.05;101092.94;2101411;28;20491;-77
2022/03/05 01:14:24;;;;;;;4.53;2.20;;;;;;;11.67;75.02;101085.91;2101834;28;20043;-77
2022/03/05 01:15:46;;;;;;;4.22;2.17;;;;;;;11.66;74.98;101078.81;2109512;28;20117;-78
2022/03/05 01:17:07;;;;;;;4.60;2.60;;;;;;;11.66;74.96;101076.19;2111974;28;20055;-77
2022/03/05 01:18:30;;;;;;;6.90;3.92;;;;;;;11.66;74.66;101076.19;2103718;28;20055;-77
2022/03/05 01:19:52;;;;;;;7.07;3.05;;;;;;;11.62;74.87;101066.41;2101421;28;20068;-76
2022/03/05 01:21:15;;;;;;;6.45;3.53;;;;;;;11.60;74.71;101065.50;2109689;28;20771;-77
2022/03/05 01:22:37;;;;;;;4.45;2.40;;;;;;;11.58;74.51;101072.50;2103809;28;20119;-77
2022/03/05 01:23:59;;;;;;;2.70;1.30;;;;;;;11.55;74.81;101069.84;2100911;28;20044;-76
2022/03/05 01:25:24;;;;;;;2.45;1.38;;;;;;;11.55;74.83;101070.69;2101322;28;20058;-77
2022/03/05 01:26:45;;;;;;;5.22;2.58;;;;;;;11.52;74.92;101075.06;2101528;28;20467;-77
2022/03/05 01:28:08;;;;;;;;;;;;;;;11.55;74.85;101075.13;2101582;28;20407;-76
2022/03/05 01:29:30;;;;;;;5.18;2.97;;;;;;;11.50;74.91;101068.84;2112203;28;19919;-77
2022/03/05 01:30:53;;;;;;;8.90;2.20;;;;;;;11.49;75.03;101067.06;2106381;28;20522;-76
2022/03/05 01:32:14;;;;;;;5.88;2.05;;;;;;;11.48;75.07;101067.94;2103676;28;20188;-76
2022/03/05 01:33:38;;;;;;;5.70;2.42;;;;;;;11.47;75.09;101059.13;2109542;28;20035;-76
2022/03/05 01:34:59;;;;;;;2.70;1.48;;;;;;;11.45;75.22;101057.31;2111989;28;20047;-77
2022/03/05 01:36:22;;;;;;;3.25;1.95;;;;;;;11.45;75.17;101052.03;2112144;28;20040;-76
2022/03/05 01:37:44;;;;;;;5.30;2.67;;;;;;;11.45;75.28;101057.31;2106317;28;20051;-76
2022/03/05 01:39:07;;;;;;;5.88;2.72;;;;;;;11.44;75.29;101058.16;2112036;28;20115;-77
2022/03/05 01:40:32;;;;;;;2.85;1.38;;;;;;;11.44;75.47;101055.53;2112195;28;20078;-77
2022/03/05 01:41:55;;;;;;;4.40;1.33;;;;;;;11.45;75.64;101055.56;2103935;28;20067;-77
2022/03/05 01:43:18;;;;;;;4.13;2.05;;;;;;;11.44;75.54;101063.47;2106262;28;20086;-77
2022/03/05 01:44:39;;;;;;;1.83;1.30;;;;;;;11.42;75.59;101052.00;2106290;28;20067;-77
2022/03/05 01:46:03;;;;;;;5.47;2.05;;;;;;;11.42;75.67;101058.13;2103545;28;20054;-77
2022/03/05 01:47:25;;;;;;;2.60;1.15;;;;;;;11.44;75.66;101053.78;2100680;28;20048;-77
2022/03/05 01:48:46;;;;;;;5.80;1.98;;;;;;;11.44;75.83;101053.78;2109546;28;20055;-76
2022/03/05 01:50:11;;;;;;;2.97;1.52;;;;;;;11.46;75.71;101053.81;2112083;28;20032;-77
2022/03/05 01:51:33;;;;;;;6.22;1.55;;;;;;;11.47;75.85;101050.31;2106353;28;20048;-77
2022/03/05 01:52:56;;;;;;;5.45;2.95;;;;;;;11.48;75.52;101046.81;2101062;28;20130;-76
2022/03/05 01:54:19;;;;;;;2.83;1.60;;;;;;;11.51;75.66;101041.53;2101142;28;20407;-78
2022/03/05 01:55:43;;;;;;;6.55;2.22;;;;;;;11.55;75.53;101044.25;2112118;28;20130;-76
2022/03/05 01:57:06;;;;;;;2.72;1.45;;;;;;;11.53;75.65;101048.66;2103674;28;20183;-77
2022/03/05 01:58:28;;;;;;;2.75;1.40;;;;;;;11.54;75.57;101047.78;2109416;28;20364;-77
2022/03/05 01:59:50;;;;;;;3.78;2.03;;;;;;;11.55;75.44;101046.91;2103448;28;20135;-77
2022/03/05 02:01:12;;;;;;;4.32;2.22;;;;;;;11.55;75.39;101046.03;2109289;28;20525;-76
2022/03/05 02:02:35;;;;;;;7.80;3.28;;;;;;;11.54;75.22;101046.91;2103504;28;20082;-76
2022/03/05 02:03:58;;;;;;;8.52;3.03;;;;;;;11.53;75.13;101047.75;2109497;28;20491;-77
2022/03/05 02:05:21;;;;;;;5.38;2.95;;;;;;;11.50;75.17;101042.41;2103875;28;20359;-77
2022/03/05 02:06:43;;;;;;;6.43;2.28;;;;;;;11.48;74.91;101045.06;2109501;28;20036;-77
2022/03/05 02:08:06;;;;;;;4.43;1.92;;;;;;;11.48;75.09;101046.81;2103546;28;20040;-78
2022/03/05 02:09:28;;;;;;;4.63;1.70;;;;;;;11.49;75.20;101043.25;2112154;28;20544;-78
2022/03/05 02:10:52;;;;;;;4.90;1.88;;;;;;;11.51;75.30;101053.00;2111920;28;20047;-76
2022/03/05 02:12:14;;;;;;;7.25;3.00;;;;;;;11.48;75.25;101044.16;2111863;28;20134;-76
2022/03/05 02:13:36;;;;;;;8.80;3.80;;;;;;;11.48;75.22;101045.06;2103564;28;20044;-77
2022/03/05 02:15:01;;;;;;;7.55;4.60;;;;;;;11.46;75.07;101041.47;2112008;28;20539;-77
2022/03/05 02:16:24;;;;;;;9.32;3.80;;;;;;;11.44;75.00;101048.50;2103488;28;20101;-76
2022/03/05 02:17:46;;;;;;;9.38;4.63;;;;;;;11.41;75.08;101039.63;2109312;28;20052;-76
2022/03/05 02:19:09;;;;;;;8.73;5.25;;;;;;;11.39;75.02;101041.34;2103584;28;20097;-78
2022/03/05 02:20:33;;;;;;;8.40;4.10;;;;;;;11.37;75.10;101043.06;2109324;28;20433;-78
2022/03/05 02:21:58;;;;;;;9.32;5.28;;;;;;;11.32;75.19;101035.06;2104086;28;20055;-78
2022/03/05 02:23:20;;;;;;;10.88;5.60;;;;;;;11.29;75.18;101032.38;2112226;28;20398;-78
2022/03/05 02:24:43;;;;;;;5.70;3.60;;;;;;;11.26;75.20;101037.63;2111819;28;20047;-78
2022/03/05 02:26:04;;;;;;;5.63;3.75;;;;;;;11.27;75.39;101046.44;2103480;28;20036;-78
2022/03/05 02:27:28;;;;;;;7.10;4.90;;;;;;;11.27;75.47;101046.44;2100881;28;20138;-78
2022/03/05 02:28:52;;;;;;;9.63;6.00;;;;;;;11.22;75.21;101051.66;2109718;28;20048;-78
2022/03/05 02:30:13;;;;;;;8.00;4.32;;;;;;;11.22;75.48;101062.22;2103594;28;20097;-77
2022/03/05 02:31:37;;;;;;;4.63;2.65;;;;;;;11.21;75.32;101063.06;2103391;28;20094;-77
2022/03/05 02:33:00;;;;;;;8.77;2.83;;;;;;;11.21;75.41;101063.06;2109781;28;20118;-77
2022/03/05 02:34:23;;;;;;;5.00;2.42;;;;;;;11.21;75.62;101052.50;2106072;28;20069;-77
2022/03/05 02:35:48;;;;;;;3.10;2.13;;;;;;;11.24;75.56;101054.28;2111870;28;20506;-77
2022/03/05 02:37:10;;;;;;;7.10;2.95;;;;;;;11.25;75.76;101051.69;2106091;28;20040;-77
2022/03/05 02:38:33;;;;;;;2.95;2.08;;;;;;;11.24;75.81;101039.31;2103531;28;20052;-77
2022/03/05 02:39:56;;;;;;;4.75;1.80;;;;;;;11.25;75.97;101034.94;2109265;28;20096;-76
2022/03/05 02:41:19;;;;;;;5.10;2.30;;;;;;;11.25;75.84;101035.84;2103637;28;20118;-76
2022/03/05 02:42:41;;;;;;;3.83;1.73;;;;;;;11.27;75.87;101030.56;2109424;28;20054;-77
2022/03/05 02:44:03;;;;;;;8.73;2.38;;;;;;;11.27;75.83;101030.56;2103530;28;20487;-75
2022/03/05 02:45:25;;;;;;;5.68;2.25;;;;;;;11.29;75.95;101024.44;2109237;28;20065;-76
2022/03/05 02:46:48;;;;;;;2.83;1.90;;;;;;;11.30;75.70;101017.41;2103564;28;20072;-77
2022/03/05 02:48:13;;;;;;;7.88;3.38;;;;;;;11.32;75.84;101021.84;2100952;28;20413;-77
2022/03/05 02:49:37;;;;;;;5.20;2.50;;;;;;;11.32;75.71;101023.59;2109931;28;21373;-77
2022/03/05 02:51:00;;;;;;;7.10;2.17;;;;;;;11.33;75.80;101025.41;2103434;28;20044;-77
2022/03/05 02:52:22;;;;;;;2.70;1.27;;;;;;;11.30;75.72;101023.56;2111977;28;20055;-76
2022/03/05 02:53:44;;;;;;;7.45;2.15;;;;;;;11.31;76.17;101033.28;2103429;28;20416;-76
2022/03/05 02:55:06;;;;;;;3.85;1.95;;;;;;;11.33;76.17;101036.84;2108970;28;20585;-76
2022/03/05 02:56:29;;;;;;;4.82;1.30;;;;;;;11.35;76.20;101039.53;2105897;28;20495;-76
2022/03/05 02:57:51;;;;;;;8.23;2.20;;;;;;;11.37;76.12;101032.50;2117547;28;20162;-77
2022/03/05 02:59:14;;;;;;;8.38;2.42;;;;;;;11.38;76.27;101035.16;2106117;28;20360;-78
2022/03/05 03:00:37;;;;;;;6.60;3.03;;;;;;;11.39;76.04;101033.41;2113497;28;20063;-77
2022/03/05 03:01:59;;;;;;;4.47;1.88;;;;;;;11.39;76.17;101038.72;2113294;28;20040;-77
2022/03/05 03:03:22;;;;;;;7.97;2.40;;;;;;;11.39;76.08;101038.72;2113448;28;20047;-76
2022/03/05 03:04:47;;;;;;;7.65;1.60;;;;;;;11.39;76.14;101038.72;2104893;28;20521;-76
2022/03/05 03:06:12;;;;;;;4.05;2.10;;;;;;;11.41;76.12;101039.63;2113823;28;20044;-77
2022/03/05 03:07:35;;;;;;;4.95;1.60;;;;;;;11.40;76.17;101048.44;2107473;28;20088;-77
2022/03/05 03:08:58;;;;;;;3.78;2.10;;;;;;;11.42;76.13;101046.69;2119309;27;20404;-77
2022/03/05 03:10:21;;;;;;;5.28;2.03;;;;;;;11.42;76.18;101047.56;2107689;28;20047;-78
2022/03/05 03:11:44;;;;;;;5.38;2.30;;;;;;;11.42;76.20;101041.41;2119319;27;20032;-77
2022/03/05 03:13:07;;;;;;;4.93;2.70;;;;;;;11.42;76.13;101041.41;2115941;28;20101;-77
2022/03/05 03:14:30;;;;;;;3.20;1.33;;;;;;;11.39;76.16;101049.28;2105142;28;20065;-77
2022/03/05 03:15:52;;;;;;;7.57;2.10;;;;;;;11.36;76.16;101042.19;2110656;28;20048;-77
2022/03/05 03:17:14;;;;;;;2.45;1.88;;;;;;;11.36;76.22;101044.81;2107136;28;20071;-77
2022/03/05 03:18:36;;;;;;;5.20;2.28;;;;;;;11.35;76.28;101040.44;2110576;28;20051;-78
2022/03/05 03:20:00;;;;;;;2.28;1.38;;;;;;;11.36;76.19;101049.22;2107559;28;20039;-77
2022/03/05 03:21:23;;;;;;;2.17;1.30;;;;;;;11.36;76.31;101041.28;2104857;28;20055;-77
2022/03/05 03:22:45;;;;;;;7.45;2.50;;;;;;;11.36;76.37;101039.53;2102109;28;20085;-77
2022/03/05 03:24:08;;;;;;;10.13;2.58;;;;;;;11.36;76.31;101050.09;2102202;28;20131;-77
2022/03/05 03:25:29;;;;;;;4.90;1.92;;;;;;;11.37;76.28;101040.44;2102402;28;20067;-77
2022/03/05 03:26:52;;;;;;;4.45;2.38;;;;;;;11.37;76.47;101041.31;2102062;28;20048;-77
2022/03/05 03:28:14;;;;;;;2.53;1.70;;;;;;;11.42;76.49;101049.34;2110469;28;20039;-77
2022/03/05 03:29:36;;;;;;;4.68;2.40;;;;;;;11.42;76.40;101047.56;2113094;28;20493;-77
2022/03/05 03:30:59;;;;;;;4.15;1.67;;;;;;;11.45;76.40;101049.38;2113171;28;20039;-77
2022/03/05 03:32:21;;;;;;;9.63;2.47;;;;;;;11.46;76.50;101052.06;2104692;28;20556;-77
2022/03/05 03:33:45;;;;;;;3.47;1.80;;;;;;;11.47;76.40;101051.19;2110450;28;20130;-77
2022/03/05 03:35:09;;;;;;;6.30;2.78;;;;;;;11.49;76.42;101043.25;2107224;28;20074;-77
2022/03/05 03:36:33;;;;;;;4.43;2.08;;;;;;;11.52;76.22;101054.78;2119340;27;20072;-77
2022/03/05 03:37:56;;;;;;;6.68;2.22;;;;;;;11.48;76.36;101045.06;2107362;28;20060;-77
2022/03/05 03:39:18;;;;;;;5.75;1.90;;;;;;;11.46;76.28;101040.59;2102083;28;20131;-77
2022/03/05 03:40:41;;;;;;;5.10;3.15;;;;;;;11.45;76.28;101047.63;2118906;27;20042;-77
2022/03/05 03:42:03;;;;;;;8.55;2.30;;;;;;;11.44;76.53;101047.59;2099041;28;20059;-77
2022/03/05 03:43:25;;;;;;;;;;;;;;;11.45;76.50;101046.72;2108521;28;20044;-77
2022/03/05 03:44:46;;;;;;;3.88;1.92;;;;;;;11.40;76.42;101046.66;2112932;28;20362;-77
2022/03/05 03:46:10;;;;;;;3.88;2.15;;;;;;;11.42;76.52;101049.34;2112869;28;20044;-77
2022/03/05 03:47:33;;;;;;;5.65;2.53;;;;;;;11.42;76.35;101052.00;2104927;28;20037;-77
2022/03/05 03:48:56;;;;;;;4.90;1.67;;;;;;;11.41;76.47;101050.22;2101996;28;20043;-77
2022/03/05 03:50:22;;;;;;;4.50;2.15;;;;;;;11.41;76.50;101047.56;2110424;28;20111;-77
2022/03/05 03:51:46;;;;;;;4.85;2.08;;;;;;;11.41;76.63;101040.53;2107205;28;20036;-77
2022/03/05 03:53:08;;;;;;;3.97;2.17;;;;;;;11.40;76.73;101043.13;2110584;28;20058;-77
2022/03/05 03:54:30;;;;;;;2.72;1.02;;;;;;;11.42;76.76;101046.69;2107221;28;20523;-78
2022/03/05 03:55:52;;;;;;;9.27;2.38;;;;;;;11.41;76.92;101045.81;2093489;28;20140;-77
2022/03/05 03:57:14;;;;;;;4.75;2.17;;;;;;;11.42;76.87;101037.00;2107927;28;20047;-77
2022/03/05 03:58:36;;;;;;;3.50;1.65;;;;;;;11.41;76.67;101040.53;2112885;28;20040;-77
2022/03/05 03:59:59;;;;;;;3.42;1.42;;;;;;;11.41;76.82;101040.53;2112859;28;20174;-77
2022/03/05 04:01:21;;;;;;;5.65;2.00;;;;;;;11.41;76.87;101042.28;2104509;28;20044;-77
2022/03/05 04:02:44;;;;;;;5.57;1.98;;;;;;;11.40;76.93;101045.78;2102142;28;20391;-78
2022/03/05 04:04:06;;;;;;;4.75;2.05;;;;;;;11.42;76.99;101036.13;2104559;28;20108;-77
2022/03/05 04:05:29;;;;;;;6.32;2.58;;;;;;;11.42;76.78;101031.69;2118900;27;20055;-77
2022/03/05 04:08:43;;;;;;;5.10;2.25;;;;;;;11.45;77.04;101042.34;2081925;28;20080;-77
2022/03/05 04:10:05;;;;;;;6.90;1.35;;;;;;;11.47;77.04;101040.63;2110619;28;20523;-77
2022/03/05 04:11:28;;;;;;;5.22;1.40;;;;;;;11.46;76.98;101040.59;2113016;28;20051;-77
2022/03/05 04:12:50;;;;;;;3.17;1.25;;;;;;;11.47;76.95;101039.72;2112965;28;20048;-77
2022/03/05 04:14:12;;;;;;;5.47;2.08;;;;;;;11.46;76.99;101036.19;2104424;28;20098;-77
2022/03/05 04:15:35;;;;;;;6.10;2.30;;;;;;;11.48;77.19;101042.41;2101811;28;20447;-77
2022/03/05 04:16:57;;;;;;;1.85;0.93;;;;;;;11.47;77.02;101039.72;2109918;28;20138;-77
2022/03/05 04:18:20;;;;;;;4.55;2.15;;;;;;;11.49;77.05;101046.81;2104467;28;20155;-77
2022/03/05 04:19:41;;;;;;;4.57;1.80;;;;;;;11.50;77.00;101043.31;2110155;28;20131;-77
2022/03/05 04:21:06;;;;;;;5.35;2.28;;;;;;;11.51;76.86;101046.84;2112622;28;20046;-77
2022/03/05 04:22:30;;;;;;;5.22;1.20;;;;;;;11.52;76.75;101043.34;2104696;28;20391;-77
2022/03/05 04:23:54;;;;;;;8.57;2.40;;;;;;;11.51;76.91;101046.84;2110828;28;20096;-77
2022/03/05 04:25:16;;;;;;;4.35;1.90;;;;;;;11.51;76.75;101044.19;2112772;28;20422;-77
2022/03/05 04:26:38;;;;;;;4.78;2.45;;;;;;;11.49;76.62;101043.25;2104262;28;20496;-77
2022/03/05 04:28:00;;;;;;;4.65;2.35;;;;;;;11.48;76.76;101052.09;2109896;28;20517;-78
2022/03/05 04:29:22;;;;;;;5.00;1.98;;;;;;;11.45;76.70;101049.38;2107096;28;20081;-77
2022/03/05 04:30:45;;;;;;;3.60;1.95;;;;;;;11.43;76.62;101049.34;2112712;28;20096;-77
2022/03/05 04:32:08;;;;;;;6.35;2.22;;;;;;;11.43;76.77;101057.28;2106912;28;20367;-77
2022/03/05 04:33:31;;;;;;;3.42;2.10;;;;;;;11.42;76.81;101057.28;2093499;28;20044;-77
2022/03/05 04:34:54;;;;;;;3.42;1.60;;;;;;;11.41;76.77;101056.38;2107623;28;20067;-78
2022/03/05 04:36:16;;;;;;;7.85;2.28;;;;;;;11.42;76.89;101062.56;2104352;28;20072;-77
2022/03/05 04:37:39;;;;;;;3.65;1.85;;;;;;;11.44;76.78;101051.13;2101446;28;20092;-77
2022/03/05 04:39:02;;;;;;;1.67;0.90;;;;;;;11.42;76.93;101058.13;2104104;28;20048;-77
2022/03/05 04:40:25;;;;;;;2.22;1.15;;;;;;;11.44;76.93;101067.00;2110049;28;20063;-77
2022/03/05 04:41:47;;;;;;;7.70;2.22;;;;;;;11.44;76.82;101058.16;2104378;28;20044;-77
2022/03/05 04:43:11;;;;;;;3.53;1.67;;;;;;;11.44;76.81;101058.16;2110043;28;20097;-77
2022/03/05 04:44:33;;;;;;;3.83;2.17;;;;;;;11.46;76.67;101064.38;2104295;28;20040;-77
2022/03/05 04:45:56;;;;;;;6.50;1.88;;;;;;;11.44;76.57;101063.47;2104291;28;20093;-77
2022/03/05 04:47:17;;;;;;;4.40;1.70;;;;;;;11.43;76.80;101069.59;2109898;28;20143;-77
2022/03/05 04:48:40;;;;;;;3.63;1.95;;;;;;;11.45;76.85;101066.13;2112552;28;20445;-77
2022/03/05 04:50:02;;;;;;;4.97;2.00;;;;;;;11.49;76.84;101072.34;2104076;28;20135;-77
2022/03/05 04:51:26;;;;;;;2.75;1.20;;;;;;;11.52;76.73;101072.41;2109751;28;20426;-77
2022/03/05 04:52:50;;;;;;;3.28;2.08;;;;;;;11.53;76.41;101067.16;2104126;28;20048;-77
2022/03/05 04:54:11;;;;;;;4.70;2.17;;;;;;;11.55;76.56;101069.84;2101951;28;20447;-77
2022/03/05 04:55:33;;;;;;;8.40;2.90;;;;;;;11.56;76.89;101061.91;2109662;28;20410;-77
2022/03/05 04:56:55;;;;;;;1.92;0.95;;;;;;;11.57;76.57;101061.03;2112418;28;20438;-77
2022/03/05 04:58:18;;;;;;;3.03;1.75;;;;;;;11.62;76.54;101063.75;2106651;28;20040;-77
2022/03/05 04:59:39;;;;;;;4.47;2.50;;;;;;;11.66;76.51;101062.06;2110139;28;20039;-77
2022/03/05 05:01:03;;;;;;;5.80;2.83;;;;;;;11.69;76.33;101068.28;2103924;28;20067;-76
2022/03/05 05:02:25;;;;;;;6.47;2.30;;;;;;;11.73;76.35;101067.47;2103972;28;20363;-76
2022/03/05 05:03:48;;;;;;;5.00;1.92;;;;;;;11.77;76.31;101063.16;2110283;28;20161;-77
2022/03/05 05:05:12;;;;;;;3.20;1.90;;;;;;;11.82;76.20;101065.00;2104032;28;20131;-77
2022/03/05 05:06:34;;;;;;;5.00;2.30;;;;;;;11.89;76.09;101066.88;2109883;28;20047;-76
2022/03/05 05:08:00;;;;;;;3.92;1.52;;;;;;;11.98;75.86;101074.94;2112508;28;20043;-77
2022/03/05 05:09:22;;;;;;;6.60;2.25;;;;;;;11.98;75.66;101071.41;2106567;28;20106;-77
2022/03/05 05:10:45;;;;;;;6.22;2.70;;;;;;;11.97;75.60;101075.81;2112331;28;20040;-77
2022/03/05 05:12:08;;;;;;;3.35;2.17;;;;;;;11.98;75.52;101085.53;2106521;28;20059;-77
2022/03/05 05:13:30;;;;;;;4.95;2.10;;;;;;;11.99;75.58;101081.13;2109824;28;20040;-77
2022/03/05 05:14:55;;;;;;;4.72;3.10;;;;;;;12.01;75.47;101078.53;2112357;28;20048;-77
2022/03/05 05:16:17;;;;;;;6.22;3.40;;;;;;;12.02;75.43;101083.81;2120858;27;20039;-77
2022/03/05 05:17:40;;;;;;;7.63;2.63;;;;;;;12.07;75.44;101078.59;2114984;28;20043;-77
2022/03/05 05:20:42;;;;;;;6.53;2.60;;;;;;;12.17;75.38;101075.22;2106664;28;20094;-77
2022/03/05 05:22:07;;;;;;;6.05;3.35;;;;;;;12.22;75.35;101074.41;2106113;28;20135;-77
2022/03/05 05:23:32;;;;;;;10.20;4.22;;;;;;;12.27;75.46;101074.50;2118673;27;20460;-77
2022/03/05 05:24:54;;;;;;;14.02;6.88;;;;;;;12.30;75.41;101077.16;2106424;28;20422;-78
2022/03/05 05:26:17;;;;;;;9.95;3.85;;;;;;;12.32;75.40;101080.72;2109721;28;20541;-78
2022/03/05 05:27:40;;;;;;;4.65;2.22;;;;;;;12.38;75.24;101078.16;2112148;28;20090;-77
2022/03/05 05:29:02;;;;;;;5.80;2.50;;;;;;;12.46;75.28;101079.16;2112473;28;20130;-78
2022/03/05 05:30:25;;;;;;;3.75;1.63;;;;;;;12.52;75.22;101073.94;2106422;28;20044;-77
2022/03/05 05:31:48;;;;;;;11.32;2.63;;;;;;;12.57;75.16;101082.81;2109747;28;20080;-78
2022/03/05 05:33:09;;;;;;;7.00;2.65;;;;;;;12.60;75.11;101071.38;2112302;28;20047;-78
2022/03/05 05:34:32;;;;;;;2.22;1.35;;;;;;;12.60;74.81;101084.63;2106485;28;20110;-78
2022/03/05 05:35:54;;;;;;;4.68;2.45;;;;;;;12.59;74.79;101069.59;2109584;28;20561;-78
2022/03/05 05:37:17;;;;;;;7.50;2.50;;;;;;;12.63;74.81;101079.34;2103782;28;20044;-78
2022/03/05 05:38:41;;;;;;;9.55;2.40;;;;;;;12.71;74.76;101078.59;2112181;28;20143;-77
2022/03/05 05:40:04;;;;;;;6.60;2.90;;;;;;;12.78;74.68;101077.78;2114795;28;20044;-78
2022/03/05 05:41:27;;;;;;;5.60;1.92;;;;;;;12.89;74.60;101080.53;2103799;28;20479;-77
2022/03/05 05:42:50;;;;;;;6.53;1.95;;;;;;;13.00;74.59;101080.66;2103730;28;20052;-78
2022/03/05 05:44:13;;;;;;;6.75;3.03;;;;;;;13.11;74.52;101087.88;2101504;28;20066;-78
2022/03/05 05:45:36;;;;;;;10.80;4.93;;;;;;;13.21;74.36;101082.66;2101181;28;20085;-78
2022/03/05 05:46:58;;;;;;;13.02;6.10;;;;;;;13.33;74.28;101088.97;2103771;28;20043;-78
2022/03/05 05:48:21;;;;;;;13.60;6.15;;;;;;;13.43;74.02;101080.25;2109437;28;20044;-78
2022/03/05 05:49:43;;;;;;;8.68;4.03;;;;;;;13.53;73.56;101079.44;2112170;28;20048;-77
2022/03/05 05:51:05;;;;;;;15.60;7.72;;;;;;;13.65;73.57;101084.00;2106263;28;20424;-78
2022/03/05 05:52:28;;;;;;;17.63;6.70;;;;;;;13.78;73.30;101079.66;2106360;28;20089;-77
2022/03/05 05:53:51;;;;;;;10.65;3.72;;;;;;;13.95;73.19;101075.34;2109695;28;20148;-77
2022/03/05 05:55:14;;;;;;;4.40;2.38;;;;;;;14.11;73.24;101079.88;2112134;28;20046;-78
2022/03/05 05:56:36;;;;;;;4.47;1.98;;;;;;;14.24;72.07;101075.56;2112215;28;20054;-77
2022/03/05 05:57:59;;;;;;;4.80;2.08;;;;;;;14.36;71.86;101073.84;2106234;28;20040;-75
2022/03/05 05:59:21;;;;;;;5.85;2.15;;;;;;;14.53;71.33;101075.72;2109491;28;20047;-75
2022/03/05 06:00:42;;;;;;;5.00;2.40;;;;;;;14.67;70.94;101077.56;2112236;28;20126;-75
2022/03/05 06:02:05;;;;;;;5.20;2.05;;;;;;;14.81;70.76;101072.28;2103620;28;20050;-75
2022/03/05 06:03:27;;;;;;;4.28;2.15;;;;;;;14.93;70.19;101080.28;2101018;28;20138;-75
2022/03/05 06:04:49;;;;;;;9.73;1.85;;;;;;;15.08;69.47;101077.69;2100865;28;20384;-76
2022/03/05 06:06:11;;;;;;;11.63;2.60;;;;;;;15.20;69.28;101075.94;2109319;28;20051;-75
2022/03/05 06:07:34;;;;;;;3.88;1.88;;;;;;;15.35;68.86;101073.28;2112035;28;20420;-75
2022/03/05 06:08:58;;;;;;;5.45;1.98;;;;;;;15.51;68.54;101075.06;2114691;28;20046;-78
2022/03/05 06:10:21;;;;;;;4.28;2.17;;;;;;;15.63;68.25;101074.22;2114672;28;20051;-77
2022/03/05 06:11:43;;;;;;;4.78;2.25;;;;;;;15.75;67.65;101076.91;2106257;28;20040;-77
2022/03/05 06:13:05;;;;;;;5.32;2.30;;;;;;;15.86;66.51;101076.00;2103649;28;20048;-77
2022/03/05 06:14:27;;;;;;;6.63;1.90;;;;;;;15.95;65.70;101075.97;2109053;28;20434;-77
2022/03/05 06:15:49;;;;;;;4.57;1.85;;;;;;;16.08;65.05;101073.31;2103798;28;20056;-77
2022/03/05 06:17:13;;;;;;;3.85;1.90;;;;;;;16.14;63.34;101067.97;2100724;28;20507;-76
2022/03/05 06:18:36;;;;;;;8.30;2.50;;;;;;;16.13;62.49;101061.75;2101466;28;20128;-77
2022/03/05 06:19:58;;;;;;;6.60;2.55;;;;;;;16.14;61.59;101058.19;2112106;28;20039;-77
2022/03/05 06:21:21;;;;;;;4.30;1.92;;;;;;;16.15;61.07;101061.72;2106132;28;20051;-76
2022/03/05 06:22:43;;;;;;;4.70;2.70;;;;;;;16.15;60.64;101056.38;2109350;28;20043;-76
2022/03/05 06:24:08;;;;;;;4.63;1.75;;;;;;;16.20;60.86;101055.50;2103817;28;20044;-78
2022/03/05 06:25:31;;;;;;;4.10;1.73;;;;;;;16.31;60.74;101050.13;2101387;28;20032;-77
2022/03/05 06:26:53;;;;;;;10.10;2.97;;;;;;;16.30;60.03;101061.69;2109301;28;20548;-76
2022/03/05 06:28:16;;;;;;;4.00;1.80;;;;;;;16.37;60.10;101060.78;2103625;28;20040;-76